createdAt,value
2022-12-15T00:02:20.752Z,5.55
2022-12-15T00:05:06.639Z,5.22
2022-12-15T00:07:52.841Z,5.53
2022-12-15T00:10:38.252Z,5.53
2022-12-15T00:13:31.021Z,5.22
2022-12-15T00:16:16.410Z,5.50
2022-12-15T00:19:01.782Z,5.18
2022-12-15T00:21:47.537Z,5.22
2022-12-15T00:24:32.881Z,5.15
2022-12-15T00:27:18.249Z,5.13
2022-12-15T00:30:03.458Z,5.32
2022-12-15T00:32:48.849Z,5.18
2022-12-15T00:35:34.377Z,5.20
2022-12-15T00:38:31.716Z,5.25
2022-12-15T00:40:59.909Z,5.13
2022-12-15T00:43:31.883Z,5.25
2022-12-15T00:46:18.374Z,5.68
2022-12-15T00:48:45.565Z,5.07
2022-12-15T00:51:12.625Z,5.55
2022-12-15T00:53:57.865Z,5.22
2022-12-15T00:56:43.188Z,5.22
2022-12-15T00:59:28.291Z,4.82
2022-12-15T01:02:13.685Z,4.82
2022-12-15T01:04:59.048Z,5.10
2022-12-15T01:07:44.292Z,4.93
2022-12-15T01:10:35.187Z,5.18
2022-12-15T01:13:22.543Z,4.78
2022-12-15T01:16:07.667Z,5.30
2022-12-15T01:18:53.440Z,5.07
2022-12-15T01:21:24.373Z,4.75
2022-12-15T01:23:52.354Z,5.30
2022-12-15T01:26:19.022Z,4.90
2022-12-15T01:28:45.633Z,4.90
2022-12-15T01:31:12.447Z,5.03
2022-12-15T01:33:39.774Z,5.10
2022-12-15T01:36:07.078Z,4.82
2022-12-15T01:38:33.789Z,5.13
2022-12-15T01:41:08.241Z,4.72
2022-12-15T01:43:38.099Z,4.90
2022-12-15T01:46:04.772Z,4.90
2022-12-15T01:48:35.993Z,5.05
2022-12-15T01:51:23.881Z,4.75
2022-12-15T01:54:03.486Z,4.90
2022-12-15T01:56:37.319Z,4.45
2022-12-15T01:59:07.429Z,5.03
2022-12-15T02:01:34.657Z,5.00
2022-12-15T02:04:02.649Z,4.95
2022-12-15T02:06:30.163Z,4.90
2022-12-15T02:08:59.947Z,4.75
2022-12-15T02:11:37.123Z,4.63
2022-12-15T02:14:06.365Z,4.50
2022-12-15T02:16:51.692Z,4.45
2022-12-15T02:19:39.416Z,4.80
2022-12-15T02:22:33.932Z,4.30
2022-12-15T02:25:19.372Z,4.30
2022-12-15T02:28:02.403Z,4.57
2022-12-15T02:31:15.749Z,4.38
2022-12-15T02:33:52.846Z,4.60
2022-12-15T02:36:29.318Z,4.65
2022-12-15T02:38:55.943Z,4.38
2022-12-15T02:41:36.966Z,4.60
2022-12-15T02:44:16.781Z,4.40
2022-12-15T02:47:25.765Z,4.50
2022-12-15T02:50:10.832Z,3.78
2022-12-15T02:52:56.095Z,4.38
2022-12-15T02:55:36.571Z,4.65
2022-12-15T03:00:57.921Z,3.90
2022-12-15T03:03:27.090Z,4.35
2022-12-15T03:05:54.666Z,4.22
2022-12-15T03:08:22.095Z,4.53
2022-12-15T03:10:51.035Z,4.30
2022-12-15T03:13:17.717Z,4.43
2022-12-15T03:15:44.318Z,4.38
2022-12-15T03:18:11.045Z,4.57
2022-12-15T03:20:37.627Z,4.55
2022-12-15T03:23:04.346Z,4.47
2022-12-15T03:25:31.266Z,4.88
2022-12-15T03:27:58.055Z,5.00
2022-12-15T03:30:24.656Z,5.00
2022-12-15T03:32:51.354Z,5.10
2022-12-15T03:35:18.003Z,5.20
2022-12-15T03:37:44.591Z,5.28
2022-12-15T03:40:13.793Z,5.53
2022-12-15T03:42:49.223Z,5.28
2022-12-15T03:45:20.922Z,18.67
2022-12-15T03:47:48.091Z,11.20
2022-12-15T03:50:17.633Z,6.15
2022-12-15T03:52:44.382Z,5.40
2022-12-15T03:55:11.895Z,5.30
2022-12-15T03:57:38.465Z,4.88
2022-12-15T04:00:07.052Z,5.10
2022-12-15T04:02:39.292Z,5.20
2022-12-15T04:05:06.589Z,5.07
2022-12-15T04:07:33.194Z,4.90
2022-12-15T04:09:59.805Z,4.93
2022-12-15T04:12:26.654Z,5.13
2022-12-15T04:14:54.032Z,5.05
2022-12-15T04:17:20.718Z,5.03
2022-12-15T04:20:05.766Z,5.03
2022-12-15T04:22:32.390Z,5.40
2022-12-15T04:25:17.657Z,5.75
2022-12-15T04:28:02.931Z,5.15
2022-12-15T04:30:49.849Z,5.03
2022-12-15T04:33:36.187Z,4.88
2022-12-15T04:36:21.942Z,4.90
2022-12-15T04:39:07.197Z,4.57
2022-12-15T04:41:53.037Z,4.55
2022-12-15T04:44:38.572Z,4.53
2022-12-15T04:47:26.976Z,5.03
2022-12-15T04:50:12.580Z,4.82
2022-12-15T04:52:57.966Z,4.40
2022-12-15T04:55:43.116Z,4.88
2022-12-15T04:58:28.941Z,4.72
2022-12-15T05:01:16.478Z,4.82
2022-12-15T05:04:01.768Z,4.95
2022-12-15T05:06:47.243Z,4.50
2022-12-15T05:09:32.671Z,4.60
2022-12-15T05:12:18.073Z,4.82
2022-12-15T05:15:03.321Z,4.82
2022-12-15T05:17:49.006Z,4.65
2022-12-15T05:20:34.425Z,4.43
2022-12-15T05:23:19.746Z,5.00
2022-12-15T05:26:05.085Z,4.50
2022-12-15T05:28:50.609Z,5.25
2022-12-15T05:31:35.930Z,4.90
2022-12-15T05:34:05.469Z,4.60
2022-12-15T05:36:33.093Z,4.55
2022-12-15T05:38:59.832Z,4.82
2022-12-15T05:41:26.888Z,4.65
2022-12-15T05:43:53.549Z,5.18
2022-12-15T05:46:20.331Z,5.28
2022-12-15T05:48:47.253Z,4.78
2022-12-15T05:51:14.427Z,4.97
2022-12-15T05:53:42.082Z,4.85
2022-12-15T05:56:11.139Z,4.85
2022-12-15T05:58:44.786Z,5.05
2022-12-15T06:01:14.884Z,4.93
2022-12-15T06:03:42.163Z,5.07
2022-12-15T06:06:10.247Z,4.80
2022-12-15T06:08:38.946Z,5.10
2022-12-15T06:11:06.307Z,4.65
2022-12-15T06:13:37.409Z,4.65
2022-12-15T06:16:07.007Z,5.20
2022-12-15T06:18:38.921Z,5.05
2022-12-15T06:21:12.168Z,5.00
2022-12-15T06:23:40.020Z,4.82
2022-12-15T06:26:21.240Z,4.90
2022-12-15T06:28:49.702Z,4.82
2022-12-15T06:31:18.274Z,4.88
2022-12-15T06:33:45.335Z,4.68
2022-12-15T06:36:14.284Z,4.70
2022-12-15T06:38:44.741Z,4.85
2022-12-15T06:41:19.414Z,5.20
2022-12-15T06:43:51.242Z,4.63
2022-12-15T06:46:18.271Z,4.80
2022-12-15T06:48:46.732Z,4.70
2022-12-15T06:51:17.725Z,4.70
2022-12-15T06:53:48.832Z,4.63
2022-12-15T06:56:25.672Z,4.43
2022-12-15T06:58:58.772Z,4.60
2022-12-15T07:01:26.676Z,4.57
2022-12-15T07:03:54.487Z,4.85
2022-12-15T07:06:24.244Z,3.95
2022-12-15T07:08:54.275Z,4.35
2022-12-15T07:11:22.288Z,4.30
2022-12-15T07:13:52.967Z,4.88
2022-12-15T07:16:21.652Z,4.78
2022-12-15T07:18:48.848Z,4.97
2022-12-15T07:21:15.550Z,4.60
2022-12-15T07:23:58.577Z,4.88
2022-12-15T07:26:26.429Z,4.70
2022-12-15T07:28:54.516Z,4.78
2022-12-15T07:31:22.292Z,4.93
2022-12-15T07:33:51.906Z,4.82
2022-12-15T07:36:18.864Z,4.10
2022-12-15T07:38:50.072Z,4.47
2022-12-15T07:41:19.271Z,4.47
2022-12-15T07:43:47.082Z,4.65
2022-12-15T07:46:13.949Z,4.68
2022-12-15T07:48:40.685Z,4.35
2022-12-15T07:51:15.154Z,4.57
2022-12-15T07:53:44.022Z,4.38
2022-12-15T07:56:10.685Z,4.68
2022-12-15T07:58:38.643Z,4.57
2022-12-15T08:01:08.232Z,4.57
2022-12-15T08:03:36.468Z,4.88
2022-12-15T08:06:09.923Z,4.55
2022-12-15T08:08:37.040Z,4.57
2022-12-15T08:11:05.791Z,4.68
2022-12-15T08:16:23.557Z,4.47
2022-12-15T08:18:50.216Z,4.28
2022-12-15T08:21:16.925Z,4.80
2022-12-15T08:23:43.640Z,4.88
2022-12-15T08:26:12.922Z,4.80
2022-12-15T08:28:40.900Z,5.03
2022-12-15T08:31:13.246Z,4.88
2022-12-15T08:33:40.813Z,4.90
2022-12-15T08:36:10.265Z,4.80
2022-12-15T08:38:39.463Z,4.63
2022-12-15T08:41:21.204Z,4.35
2022-12-15T08:43:49.393Z,4.70
2022-12-15T08:46:18.186Z,4.60
2022-12-15T08:48:45.203Z,4.53
2022-12-15T08:51:12.258Z,4.82
2022-12-15T08:53:39.036Z,5.15
2022-12-15T08:56:08.720Z,5.28
2022-12-15T08:58:36.323Z,5.40
2022-12-15T09:01:06.531Z,5.22
2022-12-15T09:06:06.841Z,5.07
2022-12-15T09:08:34.111Z,5.28
2022-12-15T09:11:01.898Z,4.65
2022-12-15T09:13:29.541Z,4.93
2022-12-15T09:16:10.640Z,4.82
2022-12-15T09:18:38.097Z,5.07
2022-12-15T09:21:07.309Z,5.13
2022-12-15T09:23:36.484Z,4.78
2022-12-15T09:26:06.344Z,4.90
2022-12-15T09:28:33.535Z,4.75
2022-12-15T09:31:09.886Z,4.43
2022-12-15T09:33:37.855Z,4.65
2022-12-15T09:36:05.099Z,4.50
2022-12-15T09:38:34.262Z,4.80
2022-12-15T09:41:15.861Z,4.85
2022-12-15T09:43:55.393Z,4.70
2022-12-15T09:46:44.200Z,4.90
2022-12-15T09:49:34.421Z,4.30
2022-12-15T09:52:10.930Z,4.72
2022-12-15T09:54:41.862Z,4.72
2022-12-15T10:00:07.532Z,4.90
2022-12-15T10:02:55.789Z,4.40
2022-12-15T10:06:14.409Z,4.40
2022-12-15T10:08:43.857Z,4.20
2022-12-15T10:11:21.557Z,4.40
2022-12-15T10:14:17.782Z,4.82
2022-12-15T10:17:22.814Z,5.25
2022-12-15T10:20:08.112Z,5.90
2022-12-15T10:22:37.490Z,5.97
2022-12-15T10:25:16.312Z,5.38
2022-12-15T10:27:59.504Z,5.70
2022-12-15T10:30:26.425Z,5.80
2022-12-15T10:33:14.521Z,4.22
2022-12-15T10:35:43.949Z,4.90
2022-12-15T10:38:42.313Z,5.43
2022-12-15T10:41:15.190Z,5.10
2022-12-15T10:43:44.950Z,5.30
2022-12-15T10:46:21.974Z,4.80
2022-12-15T10:48:56.003Z,4.80
2022-12-15T10:51:44.148Z,4.90
2022-12-15T10:54:14.122Z,5.10
2022-12-15T10:57:03.209Z,5.45
2022-12-15T10:59:38.402Z,6.47
2022-12-15T11:02:24.058Z,6.18
2022-12-15T11:05:02.065Z,6.07
2022-12-15T11:07:50.305Z,6.35
2022-12-15T11:10:23.404Z,5.43
2022-12-15T11:13:22.423Z,5.97
2022-12-15T11:15:54.965Z,7.15
2022-12-15T11:18:42.240Z,6.82
2022-12-15T11:21:17.611Z,5.78
2022-12-15T11:24:08.625Z,5.13
2022-12-15T11:26:54.684Z,4.82
2022-12-15T11:29:55.350Z,4.97
2022-12-15T11:32:44.462Z,4.93
2022-12-15T11:35:46.122Z,5.80
2022-12-15T11:38:43.614Z,5.55
2022-12-15T11:41:37.796Z,4.75
2022-12-15T11:44:18.514Z,4.80
2022-12-15T11:46:55.719Z,4.75
2022-12-15T11:52:35.186Z,5.10
2022-12-15T11:55:15.551Z,4.47
2022-12-15T11:58:06.754Z,4.20
2022-12-15T12:00:42.495Z,4.93
2022-12-15T12:03:20.547Z,4.93
2022-12-15T12:06:34.794Z,4.72
2022-12-15T12:09:33.989Z,4.07
2022-12-15T12:14:41.948Z,3.92
2022-12-15T12:17:25.941Z,3.83
2022-12-15T12:19:57.949Z,3.90
2022-12-15T12:22:33.100Z,4.30
2022-12-15T12:25:04.774Z,4.43
2022-12-15T12:27:50.321Z,4.30
2022-12-15T12:30:22.968Z,4.10
2022-12-15T12:33:02.591Z,4.72
2022-12-15T12:35:52.981Z,4.57
2022-12-15T12:41:18.926Z,4.80
2022-12-15T12:43:55.465Z,4.95
2022-12-15T12:46:32.943Z,5.05
2022-12-15T12:49:36.391Z,5.47
2022-12-15T12:52:05.319Z,5.85
2022-12-15T12:54:34.688Z,5.80
2022-12-15T12:57:13.249Z,5.60
2022-12-15T13:00:19.645Z,6.72
2022-12-15T13:02:52.506Z,5.85
2022-12-15T13:05:32.995Z,6.00
2022-12-15T13:08:05.631Z,5.70
2022-12-15T13:10:41.015Z,6.32
2022-12-15T13:13:16.505Z,6.63
2022-12-15T13:15:51.098Z,6.70
2022-12-15T13:18:27.372Z,6.63
2022-12-15T13:20:56.602Z,6.78
2022-12-15T13:23:23.648Z,7.63
2022-12-15T13:25:56.009Z,7.45
2022-12-15T13:28:22.915Z,7.30
2022-12-15T13:31:18.184Z,7.80
2022-12-15T13:33:50.872Z,8.05
2022-12-15T13:36:36.405Z,7.82
2022-12-15T13:39:15.011Z,7.55
2022-12-15T13:42:23.657Z,7.57
2022-12-15T13:44:41.201Z,7.13
2022-12-15T13:47:23.163Z,7.13
2022-12-15T13:53:18.339Z,8.07
2022-12-15T13:55:55.730Z,7.70
2022-12-15T13:58:24.373Z,6.80
2022-12-15T14:00:54.577Z,6.88
2022-12-15T14:03:22.257Z,6.85
2022-12-15T14:06:00.131Z,6.63
2022-12-15T14:08:30.355Z,7.22
2022-12-15T14:11:00.003Z,6.93
2022-12-15T14:13:31.611Z,6.65
2022-12-15T14:16:03.072Z,6.70
2022-12-15T14:18:31.498Z,6.65
2022-12-15T14:21:00.325Z,6.68
2022-12-15T14:23:30.372Z,7.03
2022-12-15T14:28:34.060Z,6.22
2022-12-15T14:31:21.127Z,6.28
2022-12-15T14:33:50.911Z,6.18
2022-12-15T14:36:20.541Z,6.07
2022-12-15T14:38:57.999Z,6.38
2022-12-15T14:41:29.724Z,5.95
2022-12-15T14:44:31.319Z,5.88
2022-12-15T14:46:48.965Z,6.53
2022-12-15T14:49:25.472Z,6.35
2022-12-15T14:51:58.332Z,6.60
2022-12-15T14:54:36.246Z,6.75
2022-12-15T14:57:20.267Z,7.03
2022-12-15T14:59:51.331Z,6.55
2022-12-15T15:02:28.316Z,6.70
2022-12-15T15:03:04.785Z,4.35
2022-12-15T15:03:05.643Z,7.18
2022-12-15T15:05:05.191Z,7.07
2022-12-15T15:07:33.645Z,6.47
2022-12-15T15:10:02.039Z,6.80
2022-12-15T15:12:45.233Z,6.72
2022-12-15T15:15:19.192Z,6.82
2022-12-15T15:17:51.991Z,6.60
2022-12-15T15:20:22.862Z,6.60
2022-12-15T15:23:07.735Z,6.93
2022-12-15T15:25:41.252Z,6.45
2022-12-15T15:28:20.449Z,6.50
2022-12-15T15:31:05.593Z,6.60
2022-12-15T15:33:32.579Z,6.50
2022-12-15T15:36:01.648Z,6.45
2022-12-15T15:38:54.459Z,6.25
2022-12-15T15:41:28.698Z,6.15
2022-12-15T15:43:58.888Z,6.35
2022-12-15T15:46:32.299Z,6.35
2022-12-15T15:49:06.639Z,6.35
2022-12-15T15:51:35.036Z,6.22
2022-12-15T15:54:05.787Z,6.72
2022-12-15T15:56:32.564Z,6.13
2022-12-15T15:59:09.660Z,7.13
2022-12-15T16:01:36.420Z,6.80
2022-12-15T16:04:03.440Z,7.03
2022-12-15T16:06:30.270Z,6.60
2022-12-15T16:08:57.013Z,6.63
2022-12-15T16:11:27.883Z,6.45
2022-12-15T16:13:54.940Z,6.70
2022-12-15T16:16:24.596Z,6.28
2022-12-15T16:18:51.679Z,6.75
2022-12-15T16:21:21.512Z,6.70
2022-12-15T16:23:48.819Z,6.90
2022-12-15T16:26:19.694Z,7.07
2022-12-15T16:28:47.615Z,6.50
2022-12-15T16:31:24.688Z,6.78
2022-12-15T16:33:51.558Z,6.60
2022-12-15T16:36:18.314Z,6.75
2022-12-15T16:38:45.509Z,7.20
2022-12-15T16:41:16.198Z,6.78
2022-12-15T16:43:48.170Z,7.03
2022-12-15T16:46:16.065Z,6.45
2022-12-15T16:48:43.414Z,6.63
2022-12-15T16:51:26.404Z,7.22
2022-12-15T16:53:53.468Z,6.57
2022-12-15T16:56:20.687Z,7.30
2022-12-15T16:58:49.027Z,7.22
2022-12-15T17:01:19.727Z,6.97
2022-12-15T17:03:47.231Z,7.45
2022-12-15T17:06:16.767Z,6.65
2022-12-15T17:08:47.946Z,7.60
2022-12-15T17:11:19.026Z,7.10
2022-12-15T17:13:51.121Z,7.45
2022-12-15T17:16:19.588Z,7.13
2022-12-15T17:18:46.983Z,7.10
2022-12-15T17:21:18.677Z,7.47
2022-12-15T17:23:50.027Z,6.80
2022-12-15T17:26:31.269Z,6.90
2022-12-15T17:29:05.656Z,6.60
2022-12-15T17:31:35.568Z,6.30
2022-12-15T17:34:23.164Z,6.25
2022-12-15T17:36:49.996Z,6.07
2022-12-15T17:39:19.690Z,5.57
2022-12-15T17:42:04.333Z,5.77
2022-12-15T17:44:37.195Z,5.10
2022-12-15T17:47:07.957Z,5.38
2022-12-15T17:49:38.279Z,5.57
2022-12-15T17:54:35.910Z,5.70
2022-12-15T17:57:02.720Z,5.68
2022-12-15T17:59:31.532Z,5.95
2022-12-15T18:01:58.516Z,6.30
2022-12-15T18:04:25.438Z,6.40
2022-12-15T18:07:02.290Z,6.18
2022-12-15T18:09:30.908Z,5.97
2022-12-15T18:11:58.026Z,6.15
2022-12-15T18:14:24.863Z,5.60
2022-12-15T18:16:52.031Z,6.50
2022-12-15T18:19:18.738Z,6.20
2022-12-15T18:21:45.518Z,5.70
2022-12-15T18:24:19.696Z,6.10
2022-12-15T18:26:49.301Z,6.13
2022-12-15T18:29:18.303Z,6.10
2022-12-15T18:31:48.827Z,5.97
2022-12-15T18:36:45.880Z,6.30
2022-12-15T18:39:23.792Z,6.10
2022-12-15T18:41:51.658Z,5.75
2022-12-15T18:44:27.636Z,5.93
2022-12-15T18:46:55.159Z,6.10
2022-12-15T18:49:23.459Z,5.30
2022-12-15T18:51:50.550Z,5.43
2022-12-15T18:54:21.284Z,5.38
2022-12-15T18:56:48.630Z,6.07
2022-12-15T18:59:17.362Z,6.53
2022-12-15T19:01:46.082Z,6.43
2022-12-15T19:04:14.592Z,5.85
2022-12-15T19:06:42.057Z,5.68
2022-12-15T19:09:22.320Z,7.40
2022-12-15T19:12:08.893Z,6.10
2022-12-15T19:14:42.643Z,6.13
2022-12-15T19:17:34.469Z,7.40
2022-12-15T19:20:22.657Z,6.05
2022-12-15T19:22:49.997Z,6.30
2022-12-15T19:25:25.873Z,5.57
2022-12-15T19:27:59.700Z,5.30
2022-12-15T19:30:37.002Z,5.63
2022-12-15T19:33:07.947Z,6.13
2022-12-15T19:35:35.772Z,5.43
2022-12-15T19:38:04.243Z,4.95
2022-12-15T19:40:32.865Z,5.60
2022-12-15T19:43:00.897Z,4.93
2022-12-15T19:45:32.664Z,5.78
2022-12-15T19:48:00.012Z,6.28
2022-12-15T19:50:37.669Z,5.30
2022-12-15T19:53:31.541Z,5.18
2022-12-15T19:56:01.565Z,5.18
2022-12-15T19:58:30.885Z,6.05
2022-12-15T20:01:06.863Z,6.38
2022-12-15T20:03:35.256Z,5.35
2022-12-15T20:06:03.705Z,5.30
2022-12-15T20:08:35.548Z,5.43
2022-12-15T20:11:02.478Z,5.72
2022-12-15T20:13:29.815Z,5.63
2022-12-15T20:15:56.824Z,6.03
2022-12-15T20:18:23.680Z,6.82
2022-12-15T20:20:51.140Z,6.10
2022-12-15T20:23:27.847Z,7.72
2022-12-15T20:25:56.069Z,5.95
2022-12-15T20:28:25.921Z,5.43
2022-12-15T20:30:53.382Z,5.18
2022-12-15T20:33:20.548Z,4.85
2022-12-15T20:35:48.859Z,5.50
2022-12-15T20:38:26.946Z,5.13
2022-12-15T20:40:55.055Z,5.20
2022-12-15T20:43:23.326Z,5.50
2022-12-15T20:45:58.405Z,5.43
2022-12-15T20:48:25.610Z,5.53
2022-12-15T20:50:53.340Z,5.40
2022-12-15T20:53:22.873Z,6.00
2022-12-15T20:55:51.237Z,8.60
2022-12-15T20:58:18.978Z,8.10
2022-12-15T21:00:47.433Z,6.40
2022-12-15T21:03:26.902Z,5.82
2022-12-15T21:05:55.841Z,5.85
2022-12-15T21:08:27.454Z,5.43
2022-12-15T21:10:58.380Z,6.00
2022-12-15T21:13:27.431Z,6.53
2022-12-15T21:15:54.467Z,5.78
2022-12-15T21:18:57.609Z,5.60
2022-12-15T21:21:18.790Z,5.93
2022-12-15T21:23:45.714Z,6.22
2022-12-15T21:26:13.484Z,6.15
2022-12-15T21:28:40.205Z,6.38
2022-12-15T21:31:06.855Z,6.13
2022-12-15T21:33:33.570Z,6.40
2022-12-15T21:36:00.410Z,6.57
2022-12-15T21:38:36.110Z,8.30
2022-12-15T21:41:06.147Z,6.45
2022-12-15T21:43:35.568Z,6.35
2022-12-15T21:46:10.875Z,6.20
2022-12-15T21:48:57.875Z,6.13
2022-12-15T21:51:25.191Z,5.53
2022-12-15T21:53:52.072Z,6.10
2022-12-15T21:56:20.730Z,5.60
2022-12-15T21:58:51.026Z,6.05
2022-12-15T22:01:24.264Z,6.00
2022-12-15T22:03:56.303Z,5.75
2022-12-15T22:06:27.758Z,5.80
2022-12-15T22:08:58.544Z,5.93
2022-12-15T22:11:27.877Z,5.72
2022-12-15T22:13:56.925Z,5.97
2022-12-15T22:16:23.972Z,6.00
2022-12-15T22:18:55.714Z,6.00
2022-12-15T22:21:24.110Z,5.57
2022-12-15T22:23:51.883Z,5.88
2022-12-15T22:26:29.109Z,6.10
2022-12-15T22:29:00.779Z,6.38
2022-12-15T22:31:28.303Z,5.85
2022-12-15T22:33:55.191Z,5.53
2022-12-15T22:36:21.990Z,5.63
2022-12-15T22:38:48.698Z,6.47
2022-12-15T22:41:21.056Z,7.32
2022-12-15T22:43:56.379Z,8.20
2022-12-15T22:46:24.915Z,8.45
2022-12-15T22:48:54.724Z,6.32
2022-12-15T22:51:21.939Z,6.65
2022-12-15T22:53:48.638Z,7.38
2022-12-15T22:56:26.290Z,7.63
2022-12-15T22:58:58.721Z,7.13
2022-12-15T23:01:26.865Z,5.95
2022-12-15T23:03:53.998Z,5.00
2022-12-15T23:06:23.519Z,5.10
2022-12-15T23:08:55.872Z,5.38
2022-12-15T23:11:38.966Z,5.43
2022-12-15T23:14:11.813Z,5.20
2022-12-15T23:16:38.886Z,6.00
2022-12-15T23:19:07.878Z,5.38
2022-12-15T23:21:35.876Z,6.72
2022-12-15T23:24:02.582Z,8.07
2022-12-15T23:26:29.333Z,8.52
2022-12-15T23:28:56.011Z,6.40
2022-12-15T23:31:23.096Z,7.07
2022-12-15T23:33:52.191Z,6.93
2022-12-15T23:36:19.660Z,7.63
2022-12-15T23:38:46.506Z,6.15
2022-12-15T23:41:17.820Z,6.18
2022-12-15T23:43:44.688Z,6.43
2022-12-15T23:46:11.511Z,8.48
2022-12-15T23:48:40.656Z,12.73
2022-12-15T23:51:10.831Z,9.00
2022-12-15T23:53:38.549Z,7.20
2022-12-15T23:56:11.984Z,6.10
2022-12-15T23:58:40.197Z,5.93
